createdAt,value
2022-09-07T00:02:39.025Z,17.1
2022-09-07T00:17:39.006Z,17.4
2022-09-07T00:32:39.005Z,17.2
2022-09-07T00:47:39.009Z,16.8
2022-09-07T01:02:39.197Z,17.3
2022-09-07T01:17:39.020Z,17.4
2022-09-07T01:32:39.002Z,17.2
2022-09-07T01:47:39.016Z,16.9
2022-09-07T02:02:39.045Z,16.9
2022-09-07T02:17:39.007Z,16.8
2022-09-07T02:32:39.006Z,16.8
2022-09-07T02:47:39.010Z,16.7
2022-09-07T03:02:39.072Z,16.6
2022-09-07T03:17:39.005Z,16.6
2022-09-07T03:32:39.014Z,16.4
2022-09-07T03:47:39.002Z,16.4
2022-09-07T04:02:39.047Z,16.1
2022-09-07T04:17:39.004Z,16.1
2022-09-07T04:32:38.999Z,15.9
2022-09-07T04:47:39.001Z,15.8
2022-09-07T05:02:39.026Z,15.9
2022-09-07T05:17:39.016Z,15.8
2022-09-07T05:32:39.006Z,15.7
2022-09-07T05:47:39.006Z,15.9
2022-09-07T06:02:39.744Z,15.8
2022-09-07T06:17:39.006Z,15.8
2022-09-07T06:47:39.005Z,15.9
2022-09-07T07:02:39.036Z,16
2022-09-07T07:17:39.005Z,16.1
2022-09-07T07:32:39.007Z,16.6
2022-09-07T07:47:39.002Z,17.1
2022-09-07T08:02:39.044Z,17.7
2022-09-07T08:17:39.021Z,18.2
2022-09-07T08:32:39.013Z,18.6
2022-09-07T08:47:39.012Z,18.8
2022-09-07T09:02:43.733Z,18.9
2022-09-07T09:17:39.014Z,19.2
2022-09-07T09:32:39.006Z,19.3
2022-09-07T09:47:39.041Z,19.2
2022-09-07T10:17:39.006Z,19.8
2022-09-07T10:32:39.024Z,20.1
2022-09-07T10:47:39.050Z,20.8
2022-09-07T11:02:39.320Z,20.8
2022-09-07T11:17:39.700Z,21
2022-09-07T11:32:39.003Z,21.1
2022-09-07T11:47:39.005Z,21.4
2022-09-07T12:02:58.028Z,22
2022-09-07T12:17:39.009Z,22.2
2022-09-07T12:32:55.559Z,22.5
2022-09-07T12:47:39.007Z,22.8
2022-09-07T13:02:39.129Z,23.2
2022-09-07T13:17:39.007Z,23.1
2022-09-07T13:33:08.431Z,23.5
2022-09-07T13:47:39.004Z,23.3
2022-09-07T14:02:39.070Z,23.9
2022-09-07T14:17:39.012Z,24.3
2022-09-07T14:32:39.022Z,24.6
2022-09-07T14:47:39.008Z,24.4
2022-09-07T15:02:39.055Z,26.1
2022-09-07T15:17:45.261Z,26.4
2022-09-07T15:32:39.036Z,26.1
2022-09-07T15:47:43.332Z,26.3
2022-09-07T16:03:05.609Z,24.8
2022-09-07T16:17:47.106Z,24.1
2022-09-07T16:32:46.165Z,24.1
2022-09-07T16:47:39.179Z,23.5
2022-09-07T17:02:39.014Z,25.1
2022-09-07T17:17:39.007Z,24.1
2022-09-07T17:32:39.028Z,23
2022-09-07T17:47:39.006Z,22.6
2022-09-07T18:02:39.026Z,22.1
2022-09-07T18:17:39.003Z,22.1
2022-09-07T18:32:39.004Z,21.9
2022-09-07T18:47:39.763Z,21.7
2022-09-07T19:02:39.104Z,21
2022-09-07T19:17:39.008Z,20.8
2022-09-07T19:32:39.007Z,20.5
2022-09-07T19:47:39.011Z,20.5
2022-09-07T20:02:39.011Z,20.2
2022-09-07T20:17:39.023Z,20
2022-09-07T20:32:39.012Z,19.9
2022-09-07T20:47:39.008Z,19.4
2022-09-07T21:02:39.009Z,19.5
2022-09-07T21:17:39.007Z,19.7
2022-09-07T21:32:39.004Z,19.4
2022-09-07T21:47:39.010Z,19.1
2022-09-07T22:02:39.010Z,19.1
2022-09-07T22:17:41.362Z,19.2
2022-09-07T22:32:39.006Z,19.1
2022-09-07T22:47:39.001Z,18.6
2022-09-07T23:02:39.014Z,18.5
2022-09-07T23:17:39.001Z,18.3
2022-09-07T23:32:39.016Z,18.2
2022-09-07T23:47:39.011Z,18.2
